createdAt,value
2017-01-04T00:00:35.125Z,972.98
2017-01-04T00:01:35.120Z,972.94
2017-01-04T00:02:35.116Z,972.9
2017-01-04T00:03:35.112Z,972.85
2017-01-04T00:04:35.109Z,972.87
2017-01-04T00:05:35.105Z,972.86
2017-01-04T00:06:35.101Z,972.83
2017-01-04T00:07:35.092Z,972.83
2017-01-04T00:08:35.088Z,972.9
2017-01-04T00:09:35.085Z,972.87
2017-01-04T00:10:35.081Z,972.92
2017-01-04T00:11:35.073Z,972.94
2017-01-04T00:12:35.069Z,972.93
2017-01-04T00:13:35.065Z,972.93
2017-01-04T00:14:35.061Z,972.9
2017-01-04T00:15:35.061Z,972.92
2017-01-04T00:16:35.057Z,972.87
2017-01-04T00:17:35.053Z,972.85
2017-01-04T00:18:35.049Z,972.83
2017-01-04T00:19:35.045Z,972.83
2017-01-04T00:20:35.037Z,972.76
2017-01-04T00:21:35.030Z,972.74
2017-01-04T00:22:35.026Z,972.71
2017-01-04T00:23:35.022Z,972.68
2017-01-04T00:24:35.018Z,972.65
2017-01-04T00:25:35.017Z,972.63
2017-01-04T00:26:35.014Z,972.64
2017-01-04T00:27:35.010Z,972.61
2017-01-04T00:28:35.005Z,972.59
2017-01-04T00:29:34.998Z,972.58
2017-01-04T00:30:34.994Z,972.59
2017-01-04T00:31:34.986Z,972.62
2017-01-04T00:32:34.986Z,972.62
2017-01-04T00:33:34.978Z,972.65
2017-01-04T00:34:34.974Z,972.68
2017-01-04T00:35:34.974Z,972.69
2017-01-04T00:36:34.970Z,972.72
2017-01-04T00:37:34.966Z,972.68
2017-01-04T00:38:34.962Z,972.61
2017-01-04T00:39:34.958Z,972.61
2017-01-04T00:40:34.946Z,972.62
2017-01-04T00:41:34.947Z,972.61
2017-01-04T00:42:34.943Z,972.57
2017-01-04T00:43:34.939Z,972.57
2017-01-04T00:44:34.935Z,972.54
2017-01-04T00:45:34.930Z,972.57
2017-01-04T00:46:34.923Z,972.56
2017-01-04T00:47:34.919Z,972.49
2017-01-04T00:48:34.919Z,972.5
2017-01-04T00:49:34.915Z,972.45
2017-01-04T00:50:34.911Z,972.42
2017-01-04T00:51:34.903Z,972.38
2017-01-04T00:52:34.895Z,972.4
2017-01-04T00:53:34.896Z,972.42
2017-01-04T00:54:34.891Z,972.42
2017-01-04T00:55:34.887Z,972.43
2017-01-04T00:56:34.884Z,972.42
2017-01-04T00:57:34.879Z,972.41
2017-01-04T00:58:34.876Z,972.41
2017-01-04T00:59:34.869Z,972.44
2017-01-04T01:00:34.864Z,972.39
2017-01-04T01:01:34.864Z,972.39
2017-01-04T01:02:34.857Z,972.35
2017-01-04T01:03:34.852Z,972.36
2017-01-04T01:04:34.848Z,972.31
2017-01-04T01:05:34.840Z,972.21
2017-01-04T01:06:34.836Z,972.18
2017-01-04T01:07:34.848Z,972.2
2017-01-04T01:08:34.832Z,972.17
2017-01-04T01:09:34.825Z,972.16
2017-01-04T01:10:34.820Z,972.15
2017-01-04T01:11:34.814Z,972.16
2017-01-04T01:12:34.813Z,972.17
2017-01-04T01:13:34.810Z,972.18
2017-01-04T01:14:34.805Z,972.19
2017-01-04T01:15:34.801Z,972.19
2017-01-04T01:16:34.794Z,972.2
2017-01-04T01:17:34.789Z,972.17
2017-01-04T01:18:34.789Z,972.19
2017-01-04T01:19:34.785Z,972.18
2017-01-04T01:20:34.777Z,972.2
2017-01-04T01:21:34.773Z,972.2
2017-01-04T01:22:34.769Z,972.25
2017-01-04T01:23:34.765Z,972.2
2017-01-04T01:24:34.762Z,972.18
2017-01-04T01:25:34.757Z,972.16
2017-01-04T01:26:34.754Z,972.12
2017-01-04T01:27:34.746Z,972.08
2017-01-04T01:28:34.738Z,972.06
2017-01-04T01:29:34.734Z,972.03
2017-01-04T01:30:34.734Z,972.02
2017-01-04T01:31:34.726Z,972
2017-01-04T01:32:34.726Z,971.98
2017-01-04T01:33:34.722Z,971.96
2017-01-04T01:34:34.718Z,971.97
2017-01-04T01:35:34.714Z,971.91
2017-01-04T01:36:34.710Z,971.83
2017-01-04T01:37:34.703Z,971.82
2017-01-04T01:38:34.698Z,971.86
2017-01-04T01:39:34.694Z,971.87
2017-01-04T01:40:34.691Z,971.86
2017-01-04T01:41:34.685Z,971.81
2017-01-04T01:42:34.682Z,971.84
2017-01-04T01:43:34.678Z,971.86
2017-01-04T01:44:34.674Z,971.82
2017-01-04T01:45:34.671Z,971.85
2017-01-04T01:46:34.663Z,971.81
2017-01-04T01:47:34.655Z,971.82
2017-01-04T01:48:34.655Z,971.84
2017-01-04T01:49:34.651Z,971.84
2017-01-04T01:50:34.647Z,971.88
2017-01-04T01:51:34.643Z,971.88
2017-01-04T01:52:34.639Z,971.94
2017-01-04T01:53:34.631Z,971.96
2017-01-04T01:54:34.627Z,971.92
2017-01-04T01:55:34.623Z,971.98
2017-01-04T01:56:34.619Z,971.98
2017-01-04T01:57:34.616Z,971.99
2017-01-04T01:58:34.607Z,972
2017-01-04T01:59:34.607Z,971.97
2017-01-04T02:00:34.600Z,971.99
2017-01-04T02:01:34.600Z,971.98
2017-01-04T02:02:34.596Z,971.95
2017-01-04T02:03:34.592Z,971.99
2017-01-04T02:04:34.580Z,972
2017-01-04T02:05:34.576Z,971.94
2017-01-04T02:06:34.573Z,971.93
2017-01-04T02:07:34.574Z,971.94
2017-01-04T02:08:34.568Z,971.87
2017-01-04T02:09:34.565Z,971.86
2017-01-04T02:10:34.560Z,971.85
2017-01-04T02:11:34.552Z,971.88
2017-01-04T02:12:34.548Z,971.93
2017-01-04T02:13:34.548Z,971.91
2017-01-04T02:14:34.544Z,971.9
2017-01-04T02:15:34.536Z,971.91
2017-01-04T02:16:34.529Z,971.88
2017-01-04T02:17:34.529Z,971.91
2017-01-04T02:18:34.525Z,971.9
2017-01-04T02:19:34.521Z,971.89
2017-01-04T02:20:34.518Z,971.88
2017-01-04T02:21:34.513Z,971.9
2017-01-04T02:22:34.508Z,971.92
2017-01-04T02:23:34.505Z,971.89
2017-01-04T02:24:34.497Z,971.88
2017-01-04T02:25:34.497Z,971.85
2017-01-04T02:26:34.489Z,971.85
2017-01-04T02:27:34.485Z,971.86
2017-01-04T02:28:34.481Z,971.84
2017-01-04T02:29:34.473Z,971.79
2017-01-04T02:30:34.469Z,971.79
2017-01-04T02:31:34.465Z,971.81
2017-01-04T02:32:34.465Z,971.77
2017-01-04T02:33:34.461Z,971.75
2017-01-04T02:34:34.449Z,971.71
2017-01-04T02:35:34.446Z,971.72
2017-01-04T02:36:34.441Z,971.71
2017-01-04T02:37:34.437Z,971.69
2017-01-04T02:38:34.439Z,971.67
2017-01-04T02:39:34.433Z,971.68
2017-01-04T02:40:34.429Z,971.71
2017-01-04T02:41:34.425Z,971.75
2017-01-04T02:42:34.421Z,971.69
2017-01-04T02:43:34.414Z,971.71
2017-01-04T02:44:34.410Z,971.72
2017-01-04T02:45:34.406Z,971.78
2017-01-04T02:46:34.402Z,971.78
2017-01-04T02:47:34.397Z,971.78
2017-01-04T02:48:34.390Z,971.76
2017-01-04T02:49:34.390Z,971.73
2017-01-04T02:50:34.382Z,971.71
2017-01-04T02:51:34.382Z,971.67
2017-01-04T02:52:34.378Z,971.6
2017-01-04T02:53:34.370Z,971.53
2017-01-04T02:54:34.362Z,971.49
2017-01-04T02:55:34.362Z,971.47
2017-01-04T02:56:34.358Z,971.46
2017-01-04T02:57:34.350Z,971.48
2017-01-04T02:58:34.351Z,971.45
2017-01-04T02:59:34.346Z,971.43
2017-01-04T03:00:34.342Z,971.36
2017-01-04T03:01:34.338Z,971.4
2017-01-04T03:02:34.330Z,971.4
2017-01-04T03:03:34.327Z,971.4
2017-01-04T03:04:34.322Z,971.4
2017-01-04T03:05:34.318Z,971.38
2017-01-04T03:06:34.315Z,971.39
2017-01-04T03:07:34.311Z,971.38
2017-01-04T03:08:34.303Z,971.43
2017-01-04T03:09:34.299Z,971.42
2017-01-04T03:10:34.299Z,971.47
2017-01-04T03:11:34.295Z,971.42
2017-01-04T03:12:34.291Z,971.5
2017-01-04T03:13:34.283Z,971.49
2017-01-04T03:14:34.279Z,971.5
2017-01-04T03:15:34.275Z,971.52
2017-01-04T03:16:34.267Z,971.47
2017-01-04T03:17:34.267Z,971.5
2017-01-04T03:18:34.263Z,971.47
2017-01-04T03:19:34.260Z,971.42
2017-01-04T03:20:34.255Z,971.45
2017-01-04T03:21:34.252Z,971.41
2017-01-04T03:22:34.244Z,971.43
2017-01-04T03:23:34.236Z,971.43
2017-01-04T03:24:34.232Z,971.36
2017-01-04T03:25:34.228Z,971.3
2017-01-04T03:26:34.227Z,971.24
2017-01-04T03:27:34.224Z,971.23
2017-01-04T03:28:34.220Z,971.13
2017-01-04T03:29:34.216Z,971.12
2017-01-04T03:30:34.212Z,971.08
2017-01-04T03:31:34.208Z,971.13
2017-01-04T03:32:34.196Z,971.06
2017-01-04T03:33:34.196Z,971.07
2017-01-04T03:34:34.192Z,971.16
2017-01-04T03:35:34.189Z,971.23
2017-01-04T03:36:34.184Z,971.2
2017-01-04T03:37:34.180Z,971.17
2017-01-04T03:38:34.176Z,971.17
2017-01-04T03:39:34.172Z,971.13
2017-01-04T03:40:34.169Z,971.19
2017-01-04T03:41:34.160Z,971.18
2017-01-04T03:42:34.156Z,971.2
2017-01-04T03:43:34.149Z,971.19
2017-01-04T03:44:34.149Z,971.18
2017-01-04T03:45:34.145Z,971.22
2017-01-04T03:46:34.141Z,971.15
2017-01-04T03:47:34.136Z,971.15
2017-01-04T03:48:34.132Z,971.15
2017-01-04T03:49:34.129Z,971.14
2017-01-04T03:50:34.125Z,971.14
2017-01-04T03:51:34.118Z,971.15
2017-01-04T03:52:34.113Z,971.13
2017-01-04T03:53:34.114Z,971.12
2017-01-04T03:54:34.109Z,971.18
2017-01-04T03:55:34.105Z,971.22
2017-01-04T03:56:34.101Z,971.17
2017-01-04T03:57:34.093Z,971.19
2017-01-04T03:58:34.089Z,971.23
2017-01-04T03:59:34.085Z,971.17
2017-01-04T04:00:34.077Z,971.19
2017-01-04T04:01:34.073Z,971.21
2017-01-04T04:02:34.073Z,971.23
2017-01-04T04:03:34.069Z,971.29
2017-01-04T04:04:34.066Z,971.32
2017-01-04T04:05:34.062Z,971.34
2017-01-04T04:06:34.054Z,971.4
2017-01-04T04:07:34.050Z,971.42
2017-01-04T04:08:34.046Z,971.43
2017-01-04T04:09:34.038Z,971.38
2017-01-04T04:10:34.038Z,971.41
2017-01-04T04:11:34.034Z,971.36
2017-01-04T04:12:34.030Z,971.36
2017-01-04T04:13:34.022Z,971.37
2017-01-04T04:14:34.022Z,971.42
2017-01-04T04:15:34.018Z,971.38
2017-01-04T04:16:34.010Z,971.39
2017-01-04T04:17:34.006Z,971.4
2017-01-04T04:18:34.002Z,971.47
2017-01-04T04:19:33.998Z,971.47
2017-01-04T04:20:33.991Z,971.52
2017-01-04T04:21:33.986Z,971.53
2017-01-04T04:22:33.984Z,971.55
2017-01-04T04:23:33.982Z,971.52
2017-01-04T04:24:33.979Z,971.5
2017-01-04T04:25:33.975Z,971.48
2017-01-04T04:26:33.971Z,971.46
2017-01-04T04:27:33.967Z,971.53
2017-01-04T04:28:33.959Z,971.57
2017-01-04T04:29:33.955Z,971.59
2017-01-04T04:30:33.947Z,971.61
2017-01-04T04:31:33.943Z,971.55
2017-01-04T04:32:33.940Z,971.55
2017-01-04T04:33:33.939Z,971.51
2017-01-04T04:34:33.938Z,971.55
2017-01-04T04:35:33.931Z,971.47
2017-01-04T04:36:33.927Z,971.47
2017-01-04T04:37:33.923Z,971.45
2017-01-04T04:38:33.919Z,971.49
2017-01-04T04:39:33.916Z,971.45
2017-01-04T04:40:33.911Z,971.39
2017-01-04T04:41:33.903Z,971.35
2017-01-04T04:42:33.899Z,971.32
2017-01-04T04:43:33.891Z,971.29
2017-01-04T04:44:33.888Z,971.3
2017-01-04T04:45:33.887Z,971.36
2017-01-04T04:46:33.880Z,971.38
2017-01-04T04:47:33.876Z,971.36
2017-01-04T04:48:33.873Z,971.31
2017-01-04T04:49:33.872Z,971.31
2017-01-04T04:50:33.868Z,971.28
2017-01-04T04:51:33.864Z,971.27
2017-01-04T04:52:33.856Z,971.28
2017-01-04T04:53:33.852Z,971.25
2017-01-04T04:54:33.844Z,971.25
2017-01-04T04:55:33.844Z,971.19
2017-01-04T04:56:33.840Z,971.18
2017-01-04T04:57:33.835Z,971.13
2017-01-04T04:58:33.829Z,971.08
2017-01-04T04:59:33.828Z,971.06
2017-01-04T05:00:33.820Z,971.05
2017-01-04T05:01:33.820Z,971.01
2017-01-04T05:02:33.818Z,970.89
2017-01-04T05:03:33.808Z,970.89
2017-01-04T05:04:33.804Z,970.84
2017-01-04T05:05:33.800Z,970.76
2017-01-04T05:06:33.796Z,970.77
2017-01-04T05:07:33.792Z,970.77
2017-01-04T05:08:33.789Z,970.74
2017-01-04T05:09:33.784Z,970.71
2017-01-04T05:10:33.780Z,970.65
2017-01-04T05:11:33.776Z,970.56
2017-01-04T05:12:33.769Z,970.57
2017-01-04T05:13:33.765Z,970.56
2017-01-04T05:14:33.761Z,970.48
2017-01-04T05:15:33.753Z,970.43
2017-01-04T05:16:33.749Z,970.42
2017-01-04T05:17:33.749Z,970.39
2017-01-04T05:18:33.747Z,970.36
2017-01-04T05:19:33.741Z,970.28
2017-01-04T05:20:33.737Z,970.23
2017-01-04T05:21:33.732Z,970.14
2017-01-04T05:22:33.729Z,970.13
2017-01-04T05:23:33.725Z,970.1
2017-01-04T05:24:33.721Z,970.08
2017-01-04T05:25:33.713Z,970.03
2017-01-04T05:26:33.705Z,970
2017-01-04T05:27:33.701Z,969.98
2017-01-04T05:28:33.697Z,969.96
2017-01-04T05:29:33.693Z,969.85
2017-01-04T05:30:33.693Z,969.84
2017-01-04T05:31:33.685Z,969.86
2017-01-04T05:32:33.685Z,969.85
2017-01-04T05:33:33.683Z,969.85
2017-01-04T05:34:33.677Z,969.88
2017-01-04T05:35:33.694Z,969.94
2017-01-04T05:36:33.669Z,969.87
2017-01-04T05:37:33.665Z,969.84
2017-01-04T05:38:33.661Z,969.89
2017-01-04T05:39:33.652Z,969.95
2017-01-04T05:40:33.649Z,969.93
2017-01-04T05:41:33.644Z,969.92
2017-01-04T05:42:33.637Z,969.97
2017-01-04T05:43:33.632Z,969.93
2017-01-04T05:44:33.628Z,970
2017-01-04T05:45:33.626Z,970.06
2017-01-04T05:46:33.620Z,970.11
2017-01-04T05:47:33.616Z,970.17
2017-01-04T05:48:33.612Z,970.26
2017-01-04T05:49:33.611Z,970.41
2017-01-04T05:50:33.609Z,970.45
2017-01-04T05:51:33.604Z,970.66
2017-01-04T05:52:33.600Z,970.76
2017-01-04T05:53:33.595Z,970.75
2017-01-04T05:54:33.587Z,970.72
2017-01-04T05:55:33.583Z,970.75
2017-01-04T05:56:33.579Z,970.78
2017-01-04T05:57:33.575Z,970.68
2017-01-04T05:58:33.571Z,970.71
2017-01-04T05:59:33.567Z,970.79
2017-01-04T06:00:33.563Z,970.72
2017-01-04T06:01:33.558Z,970.74
2017-01-04T06:02:33.555Z,970.71
2017-01-04T06:03:33.550Z,970.74
2017-01-04T06:04:33.548Z,970.74
2017-01-04T06:05:33.535Z,970.59
2017-01-04T06:06:33.530Z,970.63
2017-01-04T06:07:33.526Z,970.59
2017-01-04T06:08:33.522Z,970.59
2017-01-04T06:09:33.522Z,970.58
2017-01-04T06:10:33.514Z,970.55
2017-01-04T06:11:33.510Z,970.62
2017-01-04T06:12:33.506Z,970.69
2017-01-04T06:13:33.505Z,970.66
2017-01-04T06:14:33.497Z,970.68
2017-01-04T06:15:33.494Z,970.76
2017-01-04T06:16:33.490Z,970.74
2017-01-04T06:17:33.490Z,970.71
2017-01-04T06:18:33.481Z,970.67
2017-01-04T06:19:33.478Z,970.63
2017-01-04T06:20:33.473Z,970.61
2017-01-04T06:21:33.469Z,970.54
2017-01-04T06:22:33.465Z,970.53
2017-01-04T06:23:33.461Z,970.58
2017-01-04T06:24:33.457Z,970.59
2017-01-04T06:25:33.453Z,970.58
2017-01-04T06:26:33.449Z,970.58
2017-01-04T06:27:33.445Z,970.46
2017-01-04T06:28:33.441Z,970.51
2017-01-04T06:29:33.437Z,970.55
2017-01-04T06:30:33.432Z,970.62
2017-01-04T06:31:33.428Z,970.62
2017-01-04T06:32:33.425Z,970.59
2017-01-04T06:33:33.420Z,970.6
2017-01-04T06:34:33.412Z,970.61
2017-01-04T06:35:33.408Z,970.65
2017-01-04T06:36:33.404Z,970.68
2017-01-04T06:37:33.400Z,970.65
2017-01-04T06:38:33.399Z,970.7
2017-01-04T06:39:33.392Z,970.71
2017-01-04T06:40:33.388Z,970.69
2017-01-04T06:41:33.384Z,970.7
2017-01-04T06:42:33.379Z,970.64
2017-01-04T06:43:33.376Z,970.68
2017-01-04T06:44:33.368Z,970.66
2017-01-04T06:45:33.360Z,970.65
2017-01-04T06:46:33.355Z,970.63
2017-01-04T06:47:33.352Z,970.6
2017-01-04T06:48:33.352Z,970.61
2017-01-04T06:49:33.343Z,970.63
2017-01-04T06:50:33.343Z,970.61
2017-01-04T06:51:33.339Z,970.65
2017-01-04T06:52:33.331Z,970.63
2017-01-04T06:53:33.331Z,970.59
2017-01-04T06:54:33.327Z,970.63
2017-01-04T06:55:33.323Z,970.63
2017-01-04T06:56:33.319Z,970.64
2017-01-04T06:57:33.312Z,970.58
2017-01-04T06:58:33.311Z,970.55
2017-01-04T06:59:33.307Z,970.57
2017-01-04T07:00:33.299Z,970.6
2017-01-04T07:01:33.295Z,970.74
2017-01-04T07:02:33.291Z,970.68
2017-01-04T07:03:33.286Z,970.66
2017-01-04T07:04:33.282Z,970.68
2017-01-04T07:05:33.278Z,970.67
2017-01-04T07:06:33.274Z,970.63
2017-01-04T07:07:33.265Z,970.62
2017-01-04T07:08:33.263Z,970.66
2017-01-04T07:09:33.261Z,970.64
2017-01-04T07:10:33.257Z,970.58
2017-01-04T07:11:33.249Z,970.59
2017-01-04T07:12:33.245Z,970.58
2017-01-04T07:13:33.244Z,970.49
2017-01-04T07:14:33.236Z,970.45
2017-01-04T07:15:33.228Z,970.38
2017-01-04T07:16:33.224Z,970.38
2017-01-04T07:17:33.224Z,970.34
2017-01-04T07:18:33.220Z,970.32
2017-01-04T07:19:33.212Z,970.31
2017-01-04T07:20:33.211Z,970.29
2017-01-04T07:21:33.207Z,970.28
2017-01-04T07:22:33.203Z,970.29
2017-01-04T07:23:33.195Z,970.28
2017-01-04T07:24:33.194Z,970.22
2017-01-04T07:25:33.190Z,970.23
2017-01-04T07:26:33.186Z,970.2
2017-01-04T07:27:33.182Z,970.19
2017-01-04T07:28:33.177Z,970.21
2017-01-04T07:29:33.169Z,970.18
2017-01-04T07:30:33.166Z,970.13
2017-01-04T07:31:33.162Z,970.14
2017-01-04T07:32:33.157Z,970.13
2017-01-04T07:33:33.153Z,970.13
2017-01-04T07:34:33.149Z,970.18
2017-01-04T07:35:33.145Z,970.2
2017-01-04T07:36:33.141Z,970.17
2017-01-04T07:37:33.136Z,970.19
2017-01-04T07:38:33.134Z,970.16
2017-01-04T07:39:33.128Z,970.19
2017-01-04T07:40:33.120Z,970.13
2017-01-04T07:41:33.115Z,970.05
2017-01-04T07:42:33.111Z,970
2017-01-04T07:43:33.111Z,969.97
2017-01-04T07:44:33.102Z,969.92
2017-01-04T07:45:33.098Z,969.91
2017-01-04T07:46:33.094Z,969.82
2017-01-04T07:47:33.090Z,969.79
2017-01-04T07:48:33.085Z,969.85
2017-01-04T07:49:33.081Z,969.87
2017-01-04T07:50:33.077Z,969.85
2017-01-04T07:51:33.073Z,969.89
2017-01-04T07:52:33.069Z,969.84
2017-01-04T07:53:33.065Z,969.8
2017-01-04T07:54:33.061Z,969.8
2017-01-04T07:55:33.052Z,969.8
2017-01-04T07:56:33.052Z,969.74
2017-01-04T07:57:33.044Z,969.68
2017-01-04T07:58:33.039Z,969.69
2017-01-04T07:59:33.035Z,969.68
2017-01-04T08:00:33.031Z,969.66
2017-01-04T08:01:33.027Z,969.67
2017-01-04T08:02:33.018Z,969.67
2017-01-04T08:03:33.019Z,969.68
2017-01-04T08:04:33.014Z,969.74
2017-01-04T08:05:33.010Z,969.68
2017-01-04T08:06:33.006Z,969.7
2017-01-04T08:07:32.997Z,969.65
2017-01-04T08:08:32.993Z,969.68
2017-01-04T08:09:32.989Z,969.7
2017-01-04T08:10:32.985Z,969.63
2017-01-04T08:11:32.981Z,969.67
2017-01-04T08:12:32.980Z,969.61
2017-01-04T08:13:32.969Z,969.65
2017-01-04T08:14:32.965Z,969.68
2017-01-04T08:15:32.961Z,969.62
2017-01-04T08:16:32.960Z,969.58
2017-01-04T08:17:32.957Z,969.54
2017-01-04T08:18:32.952Z,969.5
2017-01-04T08:19:32.949Z,969.51
2017-01-04T08:20:32.949Z,969.47
2017-01-04T08:21:32.940Z,969.46
2017-01-04T08:22:32.932Z,969.47
2017-01-04T08:23:32.933Z,969.48
2017-01-04T08:24:32.924Z,969.43
2017-01-04T08:25:32.946Z,969.5
2017-01-04T08:26:32.920Z,969.47
2017-01-04T08:27:32.916Z,969.41
2017-01-04T08:28:32.912Z,969.41
2017-01-04T08:29:32.908Z,969.49
2017-01-04T08:30:32.904Z,969.46
2017-01-04T08:31:32.900Z,969.49
2017-01-04T08:32:32.896Z,969.52
2017-01-04T08:33:32.888Z,969.55
2017-01-04T08:34:32.889Z,969.59
2017-01-04T08:35:32.877Z,969.57
2017-01-04T08:36:32.877Z,969.52
2017-01-04T08:37:32.873Z,969.56
2017-01-04T08:38:32.873Z,969.52
2017-01-04T08:39:32.865Z,969.52
2017-01-04T08:40:32.861Z,969.47
2017-01-04T08:41:32.857Z,969.44
2017-01-04T08:42:32.849Z,969.45
2017-01-04T08:43:32.849Z,969.43
2017-01-04T08:44:32.845Z,969.34
2017-01-04T08:45:32.845Z,969.34
2017-01-04T08:46:32.837Z,969.34
2017-01-04T08:47:32.834Z,969.29
2017-01-04T08:48:32.830Z,969.26
2017-01-04T08:49:32.822Z,969.23
2017-01-04T08:50:32.822Z,969.21
2017-01-04T08:51:32.818Z,969.21
2017-01-04T08:52:32.816Z,969.16
2017-01-04T08:53:32.811Z,969.18
2017-01-04T08:54:32.803Z,969.17
2017-01-04T08:55:32.799Z,969.15
2017-01-04T08:56:32.799Z,969.17
2017-01-04T08:57:32.796Z,969.14
2017-01-04T08:58:32.792Z,969.21
2017-01-04T08:59:32.790Z,969.19
2017-01-04T09:00:32.784Z,969.2
2017-01-04T09:01:32.780Z,969.22
2017-01-04T09:02:32.776Z,969.22
2017-01-04T09:03:32.774Z,969.24
2017-01-04T09:04:32.769Z,969.3
2017-01-04T09:05:32.764Z,969.27
2017-01-04T09:06:32.761Z,969.28
2017-01-04T09:07:32.757Z,969.21
2017-01-04T09:08:32.753Z,969.15
2017-01-04T09:09:32.750Z,969.12
2017-01-04T09:10:32.746Z,969.18
2017-01-04T09:11:32.741Z,969.16
2017-01-04T09:12:32.734Z,969.21
2017-01-04T09:13:32.730Z,969.26
2017-01-04T09:14:32.730Z,969.23
2017-01-04T09:15:32.726Z,969.19
2017-01-04T09:16:32.722Z,969.19
2017-01-04T09:17:32.714Z,969.22
2017-01-04T09:18:32.715Z,969.12
2017-01-04T09:19:32.711Z,969.13
2017-01-04T09:20:32.707Z,969.1
2017-01-04T09:21:32.699Z,969.04
2017-01-04T09:22:32.699Z,969
2017-01-04T09:23:32.695Z,968.98
2017-01-04T09:24:32.687Z,968.99
2017-01-04T09:25:32.687Z,968.98
2017-01-04T09:26:32.683Z,968.9
2017-01-04T09:27:32.676Z,968.93
2017-01-04T09:28:32.676Z,968.95
2017-01-04T09:29:32.672Z,968.89
2017-01-04T09:30:32.668Z,968.89
2017-01-04T09:31:32.664Z,968.92
2017-01-04T09:32:32.660Z,968.92
2017-01-04T09:33:32.656Z,968.99
2017-01-04T09:34:32.648Z,968.99
2017-01-04T09:35:32.648Z,968.99
2017-01-04T09:36:32.644Z,968.99
2017-01-04T09:37:32.636Z,969.03
2017-01-04T09:38:32.636Z,969.07
2017-01-04T09:39:32.632Z,969.14
2017-01-04T09:40:32.625Z,969.1
2017-01-04T09:41:32.624Z,969.11
2017-01-04T09:42:32.621Z,969.04
2017-01-04T09:43:32.612Z,969.09
2017-01-04T09:44:32.613Z,969.12
2017-01-04T09:45:32.609Z,969.11
2017-01-04T09:46:32.605Z,969.12
2017-01-04T09:47:32.601Z,969.17
2017-01-04T09:48:32.597Z,969.13
2017-01-04T09:49:32.589Z,969.07
2017-01-04T09:50:32.589Z,969.09
2017-01-04T09:51:32.585Z,969.01
2017-01-04T09:52:32.581Z,968.98
2017-01-04T09:53:32.577Z,968.98
2017-01-04T09:54:32.569Z,968.99
2017-01-04T09:55:32.569Z,968.92
2017-01-04T09:56:32.565Z,968.93
2017-01-04T09:57:32.557Z,968.85
2017-01-04T09:58:32.561Z,968.84
2017-01-04T09:59:32.550Z,968.8
2017-01-04T10:00:32.553Z,968.79
2017-01-04T10:01:32.549Z,968.75
2017-01-04T10:02:32.545Z,968.78
2017-01-04T10:03:32.537Z,968.76
2017-01-04T10:04:32.537Z,968.75
2017-01-04T10:05:32.533Z,968.68
2017-01-04T10:06:32.525Z,968.82
2017-01-04T10:07:32.525Z,968.71
2017-01-04T10:08:32.521Z,968.85
2017-01-04T10:09:32.517Z,968.79
2017-01-04T10:10:32.509Z,968.82
2017-01-04T10:11:32.509Z,968.82
2017-01-04T10:12:32.506Z,968.73
2017-01-04T10:13:32.501Z,968.76
2017-01-04T10:14:32.497Z,968.8
2017-01-04T10:15:32.493Z,968.76
2017-01-04T10:16:32.493Z,968.75
2017-01-04T10:17:32.485Z,968.78
2017-01-04T10:18:32.481Z,968.71
2017-01-04T10:19:32.478Z,968.66
2017-01-04T10:20:32.478Z,968.65
2017-01-04T10:21:32.474Z,968.68
2017-01-04T10:22:32.470Z,968.69
2017-01-04T10:23:32.467Z,968.63
2017-01-04T10:24:32.462Z,968.66
2017-01-04T10:25:32.458Z,968.59
2017-01-04T10:26:32.454Z,968.66
2017-01-04T10:27:32.450Z,968.62
2017-01-04T10:28:32.442Z,968.58
2017-01-04T10:29:32.444Z,968.61
2017-01-04T10:30:32.438Z,968.58
2017-01-04T10:31:32.434Z,968.62
2017-01-04T10:32:32.426Z,968.45
2017-01-04T10:33:32.426Z,968.62
2017-01-04T10:34:32.422Z,968.49
2017-01-04T10:35:32.418Z,968.53
2017-01-04T10:36:32.414Z,968.49
2017-01-04T10:37:32.410Z,968.41
2017-01-04T10:38:32.406Z,968.42
2017-01-04T10:39:32.402Z,968.47
2017-01-04T10:40:32.399Z,968.42
2017-01-04T10:41:32.398Z,968.48
2017-01-04T10:42:32.395Z,968.54
2017-01-04T10:43:32.390Z,968.48
2017-01-04T10:44:32.387Z,968.56
2017-01-04T10:45:32.383Z,968.47
2017-01-04T10:46:32.379Z,968.51
2017-01-04T10:47:32.375Z,968.54
2017-01-04T10:48:32.371Z,968.49
2017-01-04T10:49:32.367Z,968.55
2017-01-04T10:50:32.363Z,968.45
2017-01-04T10:51:32.355Z,968.52
2017-01-04T10:52:32.355Z,968.48
2017-01-04T10:53:32.347Z,968.48
2017-01-04T10:54:32.347Z,968.49
2017-01-04T10:55:32.343Z,968.46
2017-01-04T10:56:32.343Z,968.44
2017-01-04T10:57:32.331Z,968.49
2017-01-04T10:58:32.335Z,968.48
2017-01-04T10:59:32.327Z,968.44
2017-01-04T11:00:32.327Z,968.45
2017-01-04T11:01:32.319Z,968.41
2017-01-04T11:02:32.319Z,968.37
2017-01-04T11:03:32.311Z,968.36
2017-01-04T11:04:32.311Z,968.34
2017-01-04T11:05:32.307Z,968.33
2017-01-04T11:06:32.303Z,968.28
2017-01-04T11:07:32.296Z,968.34
2017-01-04T11:08:32.295Z,968.36
2017-01-04T11:09:32.287Z,968.41
2017-01-04T11:10:32.287Z,968.4
2017-01-04T11:11:32.284Z,968.43
2017-01-04T11:12:32.279Z,968.37
2017-01-04T11:13:32.271Z,968.36
2017-01-04T11:14:32.275Z,968.37
2017-01-04T11:15:32.267Z,968.39
2017-01-04T11:16:32.263Z,968.37
2017-01-04T11:17:32.264Z,968.39
2017-01-04T11:18:32.260Z,968.35
2017-01-04T11:19:32.252Z,968.33
2017-01-04T11:20:32.252Z,968.39
2017-01-04T11:21:32.248Z,968.33
2017-01-04T11:22:32.244Z,968.36
2017-01-04T11:23:32.236Z,968.25
2017-01-04T11:24:32.236Z,968.25
2017-01-04T11:25:32.228Z,968.22
2017-01-04T11:26:32.228Z,968.19
2017-01-04T11:27:32.224Z,968.24
2017-01-04T11:28:32.220Z,968.21
2017-01-04T11:29:32.216Z,968.23
2017-01-04T11:30:32.212Z,968.16
2017-01-04T11:31:32.204Z,968.12
2017-01-04T11:32:32.208Z,968.15
2017-01-04T11:33:32.203Z,968.12
2017-01-04T11:34:32.200Z,968.11
2017-01-04T11:35:32.195Z,968.12
2017-01-04T11:36:32.188Z,968.04
2017-01-04T11:37:32.188Z,968.05
2017-01-04T11:38:32.184Z,968.02
2017-01-04T11:39:32.180Z,968.04
2017-01-04T11:40:32.172Z,968.02
2017-01-04T11:41:32.172Z,968
2017-01-04T11:42:32.168Z,968.02
2017-01-04T11:43:32.163Z,968.04
2017-01-04T11:44:32.164Z,967.96
2017-01-04T11:45:32.156Z,967.93
2017-01-04T11:46:32.156Z,967.93
2017-01-04T11:47:32.151Z,967.92
2017-01-04T11:48:32.148Z,967.88
2017-01-04T11:49:32.144Z,967.88
2017-01-04T11:50:32.140Z,967.88
2017-01-04T11:51:32.136Z,967.84
2017-01-04T11:52:32.131Z,967.92
2017-01-04T11:53:32.476Z,967.9
2017-01-04T11:54:32.128Z,967.91
2017-01-04T11:55:32.124Z,967.86
2017-01-04T11:56:32.120Z,967.86
2017-01-04T11:57:32.116Z,967.82
2017-01-04T11:58:32.108Z,967.79
2017-01-04T11:59:32.108Z,967.8
2017-01-04T12:00:32.104Z,967.77
2017-01-04T12:01:32.101Z,967.86
2017-01-04T12:02:32.096Z,967.73
2017-01-04T12:03:32.088Z,967.71
2017-01-04T12:04:32.088Z,967.64
2017-01-04T12:05:32.088Z,967.67
2017-01-04T12:06:32.081Z,967.6
2017-01-04T12:07:32.080Z,967.61
2017-01-04T12:08:32.076Z,967.54
2017-01-04T12:09:32.073Z,967.48
2017-01-04T12:10:32.065Z,967.45
2017-01-04T12:11:32.065Z,967.38
2017-01-04T12:12:32.061Z,967.38
2017-01-04T12:13:32.053Z,967.38
2017-01-04T12:14:32.057Z,967.28
2017-01-04T12:15:32.049Z,967.29
2017-01-04T12:16:32.046Z,967.3
2017-01-04T12:17:32.045Z,967.35
2017-01-04T12:18:32.041Z,967.23
2017-01-04T12:19:32.037Z,967.25
2017-01-04T12:20:32.030Z,967.22
2017-01-04T12:21:32.030Z,967.25
2017-01-04T12:22:32.026Z,967.24
2017-01-04T12:23:32.019Z,967.36
2017-01-04T12:24:32.023Z,967.22
2017-01-04T12:25:32.020Z,967.25
2017-01-04T12:26:32.015Z,967.24
2017-01-04T12:27:32.012Z,967.22
2017-01-04T12:28:32.009Z,967.29
2017-01-04T12:29:32.004Z,967.22
2017-01-04T12:30:32.003Z,967.27